Mc Call Municipal Airport Mc Call US
ICAO: KMYL
IATA: MYL
Category: Medium
Scheduled Services: No

Elevation: 5024 ft
TransAlt. 18000 ft.

Airport Communications:
ASOS:119.925
SALT LAKE CITY CNTR:128.05
BOISE RDO:122.35
CTAF/UNICOM:122.8

KMYL Zoom In..

If you have problems with the map follow the link
https://www.worldairports.se/pages/airport.php?
ICAO=KMYL

Runways:

(A) RW 16 length 6108 ft width 75 ft
---- / hdg 162

(B) RW 34 length 6108 ft width 75 ft
---- / hdg 342

Location; KMYL
Day. 24 / Time. 11.30 Zulu
* Altimeter: 29.95
* Temperature: 01° c. 33.8°f.
* Wind from: 000° Speed 00 kn.
Dewpoint: 00° c.
Visibility: 1/2 Statute Miles.
Conditions: Fog.

KMYL 241130Z AUTO 00000KT 1/2SM FG VV015 01/00 A2995 RMK AO2 T00110000 $


Wind - Calm.

 
 
jpsmedia.com for Web Design worldairports.se 2019   terms of use